sensor_id;sensor_type;location;lat;lon;timestamp;P1;durP1;ratioP1;P2;durP2;ratioP2
10811;SDS011;5458;51.496;7.334;2023-02-07T00:00:33;30.02;;;21.00;;
10811;SDS011;5458;51.496;7.334;2023-02-07T00:02:59;46.97;;;22.57;;
10811;SDS011;5458;51.496;7.334;2023-02-07T00:05:24;39.42;;;21.08;;
10811;SDS011;5458;51.496;7.334;2023-02-07T00:07:51;36.90;;;21.53;;
10811;SDS011;5458;51.496;7.334;2023-02-07T00:10:17;45.87;;;22.67;;
10811;SDS011;5458;51.496;7.334;2023-02-07T00:12:42;45.70;;;22.63;;
10811;SDS011;5458;51.496;7.334;2023-02-07T00:15:08;38.72;;;22.13;;
10811;SDS011;5458;51.496;7.334;2023-02-07T00:17:34;44.10;;;22.37;;
10811;SDS011;5458;51.496;7.334;2023-02-07T00:19:59;43.67;;;23.20;;
10811;SDS011;5458;51.496;7.334;2023-02-07T00:22:25;34.23;;;22.23;;
10811;SDS011;5458;51.496;7.334;2023-02-07T00:24:51;39.57;;;22.43;;
10811;SDS011;5458;51.496;7.334;2023-02-07T00:27:16;35.40;;;21.33;;
10811;SDS011;5458;51.496;7.334;2023-02-07T00:29:42;35.83;;;21.97;;
10811;SDS011;5458;51.496;7.334;2023-02-07T00:32:08;34.03;;;20.90;;
10811;SDS011;5458;51.496;7.334;2023-02-07T00:34:33;33.77;;;22.23;;
10811;SDS011;5458;51.496;7.334;2023-02-07T00:37:02;38.80;;;22.03;;
10811;SDS011;5458;51.496;7.334;2023-02-07T00:39:29;35.23;;;21.63;;
10811;SDS011;5458;51.496;7.334;2023-02-07T00:41:55;36.27;;;20.90;;
10811;SDS011;5458;51.496;7.334;2023-02-07T00:44:20;32.30;;;20.77;;
10811;SDS011;5458;51.496;7.334;2023-02-07T00:46:46;40.33;;;22.23;;
10811;SDS011;5458;51.496;7.334;2023-02-07T00:49:12;38.27;;;21.17;;
10811;SDS011;5458;51.496;7.334;2023-02-07T00:51:38;29.50;;;20.43;;
10811;SDS011;5458;51.496;7.334;2023-02-07T00:54:03;33.90;;;22.03;;
10811;SDS011;5458;51.496;7.334;2023-02-07T00:56:30;35.17;;;21.30;;
10811;SDS011;5458;51.496;7.334;2023-02-07T00:58:57;37.33;;;20.30;;
10811;SDS011;5458;51.496;7.334;2023-02-07T01:01:23;33.37;;;20.87;;
10811;SDS011;5458;51.496;7.334;2023-02-07T01:03:49;36.40;;;23.37;;
10811;SDS011;5458;51.496;7.334;2023-02-07T01:06:15;32.30;;;20.47;;
10811;SDS011;5458;51.496;7.334;2023-02-07T01:08:41;28.87;;;19.30;;
10811;SDS011;5458;51.496;7.334;2023-02-07T01:11:08;34.40;;;20.00;;
10811;SDS011;5458;51.496;7.334;2023-02-07T01:13:35;30.07;;;20.33;;
10811;SDS011;5458;51.496;7.334;2023-02-07T01:16:01;33.22;;;21.13;;
10811;SDS011;5458;51.496;7.334;2023-02-07T01:18:27;35.60;;;21.67;;
10811;SDS011;5458;51.496;7.334;2023-02-07T01:20:53;28.52;;;19.67;;
10811;SDS011;5458;51.496;7.334;2023-02-07T01:23:19;29.13;;;20.50;;
10811;SDS011;5458;51.496;7.334;2023-02-07T01:25:44;30.40;;;20.03;;
10811;SDS011;5458;51.496;7.334;2023-02-07T01:28:10;28.70;;;18.57;;
10811;SDS011;5458;51.496;7.334;2023-02-07T01:30:38;31.13;;;19.63;;
10811;SDS011;5458;51.496;7.334;2023-02-07T01:33:05;29.77;;;19.27;;
10811;SDS011;5458;51.496;7.334;2023-02-07T01:35:30;32.93;;;20.20;;
10811;SDS011;5458;51.496;7.334;2023-02-07T01:37:57;27.50;;;18.90;;
10811;SDS011;5458;51.496;7.334;2023-02-07T01:40:23;27.80;;;18.07;;
10811;SDS011;5458;51.496;7.334;2023-02-07T01:42:49;30.67;;;18.33;;
10811;SDS011;5458;51.496;7.334;2023-02-07T01:45:17;31.23;;;19.50;;
10811;SDS011;5458;51.496;7.334;2023-02-07T01:47:53;27.35;;;17.90;;
10811;SDS011;5458;51.496;7.334;2023-02-07T01:50:23;32.40;;;18.33;;
10811;SDS011;5458;51.496;7.334;2023-02-07T01:52:49;27.53;;;18.80;;
10811;SDS011;5458;51.496;7.334;2023-02-07T01:55:17;27.27;;;17.50;;
10811;SDS011;5458;51.496;7.334;2023-02-07T01:57:46;25.23;;;16.77;;
10811;SDS011;5458;51.496;7.334;2023-02-07T02:00:13;24.93;;;17.03;;
10811;SDS011;5458;51.496;7.334;2023-02-07T02:02:40;27.50;;;17.53;;
10811;SDS011;5458;51.496;7.334;2023-02-07T02:05:07;28.93;;;17.73;;
10811;SDS011;5458;51.496;7.334;2023-02-07T02:07:34;29.60;;;17.53;;
10811;SDS011;5458;51.496;7.334;2023-02-07T02:10:01;27.70;;;18.17;;
10811;SDS011;5458;51.496;7.334;2023-02-07T02:12:46;25.97;;;17.20;;
10811;SDS011;5458;51.496;7.334;2023-02-07T02:23:22;27.07;;;18.03;;
10811;SDS011;5458;51.496;7.334;2023-02-07T02:34:26;33.87;;;20.53;;
10811;SDS011;5458;51.496;7.334;2023-02-07T02:37:05;31.23;;;19.93;;
10811;SDS011;5458;51.496;7.334;2023-02-07T02:39:48;31.07;;;19.77;;
10811;SDS011;5458;51.496;7.334;2023-02-07T02:45:17;28.30;;;18.50;;
10811;SDS011;5458;51.496;7.334;2023-02-07T02:47:51;28.80;;;17.80;;
10811;SDS011;5458;51.496;7.334;2023-02-07T02:50:20;30.83;;;20.97;;
10811;SDS011;5458;51.496;7.334;2023-02-07T02:52:48;24.07;;;17.17;;
10811;SDS011;5458;51.496;7.334;2023-02-07T02:55:13;25.60;;;18.47;;
10811;SDS011;5458;51.496;7.334;2023-02-07T02:57:50;26.40;;;16.73;;
10811;SDS011;5458;51.496;7.334;2023-02-07T03:00:43;26.97;;;17.90;;
10811;SDS011;5458;51.496;7.334;2023-02-07T03:08:52;29.10;;;18.53;;
10811;SDS011;5458;51.496;7.334;2023-02-07T03:11:40;30.27;;;19.10;;
10811;SDS011;5458;51.496;7.334;2023-02-07T03:14:29;27.43;;;17.10;;
10811;SDS011;5458;51.496;7.334;2023-02-07T03:17:24;27.80;;;18.20;;
10811;SDS011;5458;51.496;7.334;2023-02-07T03:19:52;28.77;;;16.90;;
10811;SDS011;5458;51.496;7.334;2023-02-07T03:22:25;26.13;;;16.37;;
10811;SDS011;5458;51.496;7.334;2023-02-07T03:24:54;25.53;;;16.67;;
10811;SDS011;5458;51.496;7.334;2023-02-07T03:27:22;25.30;;;17.47;;
10811;SDS011;5458;51.496;7.334;2023-02-07T03:29:51;24.67;;;16.10;;
10811;SDS011;5458;51.496;7.334;2023-02-07T03:32:21;25.13;;;15.63;;
10811;SDS011;5458;51.496;7.334;2023-02-07T03:34:51;26.43;;;16.20;;
10811;SDS011;5458;51.496;7.334;2023-02-07T03:37:38;25.33;;;15.83;;
10811;SDS011;5458;51.496;7.334;2023-02-07T03:40:07;21.60;;;15.57;;
10811;SDS011;5458;51.496;7.334;2023-02-07T03:42:45;25.63;;;17.37;;
10811;SDS011;5458;51.496;7.334;2023-02-07T03:45:38;27.73;;;16.60;;
10811;SDS011;5458;51.496;7.334;2023-02-07T03:48:05;30.53;;;16.30;;
10811;SDS011;5458;51.496;7.334;2023-02-07T03:50:31;24.20;;;15.70;;
10811;SDS011;5458;51.496;7.334;2023-02-07T03:52:56;24.90;;;16.40;;
10811;SDS011;5458;51.496;7.334;2023-02-07T03:55:22;25.40;;;16.57;;
10811;SDS011;5458;51.496;7.334;2023-02-07T03:57:48;22.10;;;15.17;;
10811;SDS011;5458;51.496;7.334;2023-02-07T04:00:13;25.50;;;16.27;;
10811;SDS011;5458;51.496;7.334;2023-02-07T04:02:39;21.00;;;15.27;;
10811;SDS011;5458;51.496;7.334;2023-02-07T04:05:05;23.30;;;16.23;;
10811;SDS011;5458;51.496;7.334;2023-02-07T04:07:31;28.37;;;16.27;;
10811;SDS011;5458;51.496;7.334;2023-02-07T04:09:57;22.53;;;15.27;;
10811;SDS011;5458;51.496;7.334;2023-02-07T04:12:22;24.57;;;15.63;;
10811;SDS011;5458;51.496;7.334;2023-02-07T04:14:48;23.40;;;15.00;;
10811;SDS011;5458;51.496;7.334;2023-02-07T04:17:14;22.73;;;15.17;;
10811;SDS011;5458;51.496;7.334;2023-02-07T04:19:39;21.60;;;14.80;;
10811;SDS011;5458;51.496;7.334;2023-02-07T04:22:05;21.80;;;16.27;;
10811;SDS011;5458;51.496;7.334;2023-02-07T04:24:30;20.77;;;15.40;;
10811;SDS011;5458;51.496;7.334;2023-02-07T04:26:57;24.17;;;15.57;;
10811;SDS011;5458;51.496;7.334;2023-02-07T04:29:23;25.03;;;15.70;;
10811;SDS011;5458;51.496;7.334;2023-02-07T04:31:49;22.67;;;15.97;;
10811;SDS011;5458;51.496;7.334;2023-02-07T04:34:14;24.63;;;14.50;;
10811;SDS011;5458;51.496;7.334;2023-02-07T04:36:40;20.20;;;14.83;;
10811;SDS011;5458;51.496;7.334;2023-02-07T04:39:06;22.83;;;14.47;;
10811;SDS011;5458;51.496;7.334;2023-02-07T04:41:31;21.67;;;14.53;;
10811;SDS011;5458;51.496;7.334;2023-02-07T04:43:57;23.23;;;15.60;;
10811;SDS011;5458;51.496;7.334;2023-02-07T04:46:22;27.20;;;16.17;;
10811;SDS011;5458;51.496;7.334;2023-02-07T04:48:48;19.27;;;15.03;;
10811;SDS011;5458;51.496;7.334;2023-02-07T04:51:14;20.70;;;15.23;;
10811;SDS011;5458;51.496;7.334;2023-02-07T04:53:40;20.83;;;14.97;;
10811;SDS011;5458;51.496;7.334;2023-02-07T04:56:06;22.87;;;14.57;;
10811;SDS011;5458;51.496;7.334;2023-02-07T04:58:32;22.27;;;15.43;;
10811;SDS011;5458;51.496;7.334;2023-02-07T05:00:58;19.40;;;14.47;;
10811;SDS011;5458;51.496;7.334;2023-02-07T05:03:23;24.77;;;15.53;;
10811;SDS011;5458;51.496;7.334;2023-02-07T05:05:51;23.57;;;15.07;;
10811;SDS011;5458;51.496;7.334;2023-02-07T05:08:18;26.37;;;15.60;;
10811;SDS011;5458;51.496;7.334;2023-02-07T05:10:44;19.80;;;14.70;;
10811;SDS011;5458;51.496;7.334;2023-02-07T05:13:10;24.73;;;15.63;;
10811;SDS011;5458;51.496;7.334;2023-02-07T05:15:35;22.27;;;15.43;;
10811;SDS011;5458;51.496;7.334;2023-02-07T05:18:01;21.83;;;15.37;;
10811;SDS011;5458;51.496;7.334;2023-02-07T05:20:27;22.67;;;15.63;;
10811;SDS011;5458;51.496;7.334;2023-02-07T05:22:52;17.03;;;14.50;;
10811;SDS011;5458;51.496;7.334;2023-02-07T05:25:18;27.27;;;16.50;;
10811;SDS011;5458;51.496;7.334;2023-02-07T05:27:43;26.33;;;14.40;;
10811;SDS011;5458;51.496;7.334;2023-02-07T05:30:09;24.07;;;17.07;;
10811;SDS011;5458;51.496;7.334;2023-02-07T05:32:36;20.47;;;14.20;;
10811;SDS011;5458;51.496;7.334;2023-02-07T05:35:20;23.40;;;14.40;;
10811;SDS011;5458;51.496;7.334;2023-02-07T05:37:46;23.63;;;15.33;;
10811;SDS011;5458;51.496;7.334;2023-02-07T05:40:11;20.60;;;14.77;;
10811;SDS011;5458;51.496;7.334;2023-02-07T05:42:37;20.63;;;15.43;;
10811;SDS011;5458;51.496;7.334;2023-02-07T05:45:03;17.27;;;14.40;;
10811;SDS011;5458;51.496;7.334;2023-02-07T05:47:30;20.43;;;15.27;;
10811;SDS011;5458;51.496;7.334;2023-02-07T05:49:56;22.83;;;15.53;;
10811;SDS011;5458;51.496;7.334;2023-02-07T05:52:21;18.00;;;13.23;;
10811;SDS011;5458;51.496;7.334;2023-02-07T05:54:47;19.53;;;13.77;;
10811;SDS011;5458;51.496;7.334;2023-02-07T05:57:12;19.10;;;14.13;;
10811;SDS011;5458;51.496;7.334;2023-02-07T05:59:38;18.87;;;14.23;;
10811;SDS011;5458;51.496;7.334;2023-02-07T06:02:03;20.57;;;13.70;;
10811;SDS011;5458;51.496;7.334;2023-02-07T06:04:29;22.40;;;13.87;;
10811;SDS011;5458;51.496;7.334;2023-02-07T06:06:55;18.10;;;13.93;;
10811;SDS011;5458;51.496;7.334;2023-02-07T06:09:20;19.50;;;13.90;;
10811;SDS011;5458;51.496;7.334;2023-02-07T06:11:46;18.77;;;13.80;;
10811;SDS011;5458;51.496;7.334;2023-02-07T06:14:12;18.43;;;13.57;;
10811;SDS011;5458;51.496;7.334;2023-02-07T06:16:37;18.97;;;13.73;;
10811;SDS011;5458;51.496;7.334;2023-02-07T06:19:03;18.53;;;14.40;;
10811;SDS011;5458;51.496;7.334;2023-02-07T06:21:29;15.57;;;12.77;;
10811;SDS011;5458;51.496;7.334;2023-02-07T06:23:54;16.47;;;13.50;;
10811;SDS011;5458;51.496;7.334;2023-02-07T06:26:20;19.17;;;13.70;;
10811;SDS011;5458;51.496;7.334;2023-02-07T06:28:45;15.70;;;13.30;;
10811;SDS011;5458;51.496;7.334;2023-02-07T06:31:11;19.17;;;13.13;;
10811;SDS011;5458;51.496;7.334;2023-02-07T06:33:37;18.03;;;13.70;;
10811;SDS011;5458;51.496;7.334;2023-02-07T06:36:02;20.33;;;13.80;;
10811;SDS011;5458;51.496;7.334;2023-02-07T06:38:28;19.97;;;13.63;;
10811;SDS011;5458;51.496;7.334;2023-02-07T06:40:54;20.77;;;14.00;;
10811;SDS011;5458;51.496;7.334;2023-02-07T06:43:19;22.93;;;13.30;;
10811;SDS011;5458;51.496;7.334;2023-02-07T06:45:45;25.40;;;13.73;;
10811;SDS011;5458;51.496;7.334;2023-02-07T06:48:10;18.97;;;12.43;;
10811;SDS011;5458;51.496;7.334;2023-02-07T06:50:36;21.37;;;14.60;;
10811;SDS011;5458;51.496;7.334;2023-02-07T06:53:02;21.23;;;14.60;;
10811;SDS011;5458;51.496;7.334;2023-02-07T06:55:28;20.87;;;14.70;;
10811;SDS011;5458;51.496;7.334;2023-02-07T06:57:55;25.23;;;15.67;;
10811;SDS011;5458;51.496;7.334;2023-02-07T07:00:20;21.60;;;14.57;;
10811;SDS011;5458;51.496;7.334;2023-02-07T07:02:47;20.07;;;14.77;;
10811;SDS011;5458;51.496;7.334;2023-02-07T07:05:13;20.40;;;13.27;;
10811;SDS011;5458;51.496;7.334;2023-02-07T07:07:39;20.97;;;14.13;;
10811;SDS011;5458;51.496;7.334;2023-02-07T07:10:05;24.23;;;13.60;;
10811;SDS011;5458;51.496;7.334;2023-02-07T07:12:31;19.13;;;13.93;;
10811;SDS011;5458;51.496;7.334;2023-02-07T07:14:57;22.07;;;14.77;;
10811;SDS011;5458;51.496;7.334;2023-02-07T07:17:22;19.33;;;13.60;;
10811;SDS011;5458;51.496;7.334;2023-02-07T07:19:48;21.23;;;14.45;;
10811;SDS011;5458;51.496;7.334;2023-02-07T07:22:14;20.67;;;15.33;;
10811;SDS011;5458;51.496;7.334;2023-02-07T07:24:39;23.33;;;15.13;;
10811;SDS011;5458;51.496;7.334;2023-02-07T07:27:05;22.13;;;15.13;;
10811;SDS011;5458;51.496;7.334;2023-02-07T07:29:30;20.75;;;14.65;;
10811;SDS011;5458;51.496;7.334;2023-02-07T07:31:56;22.37;;;15.20;;
10811;SDS011;5458;51.496;7.334;2023-02-07T07:34:21;21.90;;;16.07;;
10811;SDS011;5458;51.496;7.334;2023-02-07T07:36:47;20.60;;;15.60;;
10811;SDS011;5458;51.496;7.334;2023-02-07T07:39:13;19.60;;;13.97;;
10811;SDS011;5458;51.496;7.334;2023-02-07T07:41:38;21.47;;;15.03;;
10811;SDS011;5458;51.496;7.334;2023-02-07T07:44:04;21.77;;;14.93;;
10811;SDS011;5458;51.496;7.334;2023-02-07T07:46:30;22.40;;;15.07;;
10811;SDS011;5458;51.496;7.334;2023-02-07T07:48:56;19.90;;;13.87;;
10811;SDS011;5458;51.496;7.334;2023-02-07T07:51:21;23.23;;;15.33;;
10811;SDS011;5458;51.496;7.334;2023-02-07T07:53:47;21.87;;;13.83;;
10811;SDS011;5458;51.496;7.334;2023-02-07T07:56:13;22.33;;;15.47;;
10811;SDS011;5458;51.496;7.334;2023-02-07T07:58:38;25.90;;;16.03;;
10811;SDS011;5458;51.496;7.334;2023-02-07T08:01:04;23.83;;;15.40;;
10811;SDS011;5458;51.496;7.334;2023-02-07T08:03:29;24.30;;;16.83;;
10811;SDS011;5458;51.496;7.334;2023-02-07T08:05:55;25.43;;;16.53;;
10811;SDS011;5458;51.496;7.334;2023-02-07T08:08:21;24.90;;;17.10;;
10811;SDS011;5458;51.496;7.334;2023-02-07T08:10:46;24.43;;;15.83;;
10811;SDS011;5458;51.496;7.334;2023-02-07T08:13:12;25.57;;;16.17;;
10811;SDS011;5458;51.496;7.334;2023-02-07T08:15:40;25.33;;;17.53;;
10811;SDS011;5458;51.496;7.334;2023-02-07T08:18:06;28.97;;;18.13;;
10811;SDS011;5458;51.496;7.334;2023-02-07T08:20:32;28.30;;;18.47;;
10811;SDS011;5458;51.496;7.334;2023-02-07T08:22:58;28.10;;;17.03;;
10811;SDS011;5458;51.496;7.334;2023-02-07T08:25:24;27.60;;;17.80;;
10811;SDS011;5458;51.496;7.334;2023-02-07T08:27:49;29.37;;;17.63;;
10811;SDS011;5458;51.496;7.334;2023-02-07T08:30:15;30.37;;;18.50;;
10811;SDS011;5458;51.496;7.334;2023-02-07T08:32:42;15.90;;;13.60;;
10811;SDS011;5458;51.496;7.334;2023-02-07T08:35:08;17.77;;;13.50;;
10811;SDS011;5458;51.496;7.334;2023-02-07T08:37:35;18.83;;;13.45;;
10811;SDS011;5458;51.496;7.334;2023-02-07T08:40:01;17.13;;;13.35;;
10811;SDS011;5458;51.496;7.334;2023-02-07T08:42:28;14.65;;;12.88;;
10811;SDS011;5458;51.496;7.334;2023-02-07T08:44:54;16.17;;;12.68;;
10811;SDS011;5458;51.496;7.334;2023-02-07T08:47:20;17.58;;;11.90;;
10811;SDS011;5458;51.496;7.334;2023-02-07T08:49:46;16.52;;;12.27;;
10811;SDS011;5458;51.496;7.334;2023-02-07T08:52:12;16.08;;;11.38;;
10811;SDS011;5458;51.496;7.334;2023-02-07T08:54:38;15.82;;;12.57;;
10811;SDS011;5458;51.496;7.334;2023-02-07T08:57:03;12.30;;;11.00;;
10811;SDS011;5458;51.496;7.334;2023-02-07T08:59:29;13.40;;;11.82;;
10811;SDS011;5458;51.496;7.334;2023-02-07T09:01:55;21.27;;;16.23;;
10811;SDS011;5458;51.496;7.334;2023-02-07T09:04:20;15.55;;;13.98;;
10811;SDS011;5458;51.496;7.334;2023-02-07T09:06:46;21.00;;;16.63;;
10811;SDS011;5458;51.496;7.334;2023-02-07T09:09:12;15.80;;;12.82;;
10811;SDS011;5458;51.496;7.334;2023-02-07T09:11:37;15.65;;;9.38;;
10811;SDS011;5458;51.496;7.334;2023-02-07T09:14:03;10.88;;;9.77;;
10811;SDS011;5458;51.496;7.334;2023-02-07T09:16:29;13.57;;;10.43;;
10811;SDS011;5458;51.496;7.334;2023-02-07T09:18:54;13.43;;;10.73;;
10811;SDS011;5458;51.496;7.334;2023-02-07T09:21:21;11.70;;;9.73;;
10811;SDS011;5458;51.496;7.334;2023-02-07T09:23:47;11.00;;;8.90;;
10811;SDS011;5458;51.496;7.334;2023-02-07T09:26:30;10.43;;;7.82;;
10811;SDS011;5458;51.496;7.334;2023-02-07T09:28:58;9.23;;;8.32;;
10811;SDS011;5458;51.496;7.334;2023-02-07T09:31:23;8.82;;;7.25;;
10811;SDS011;5458;51.496;7.334;2023-02-07T09:33:49;8.07;;;7.30;;
10811;SDS011;5458;51.496;7.334;2023-02-07T09:36:19;12.93;;;11.02;;
10811;SDS011;5458;51.496;7.334;2023-02-07T09:38:47;6.85;;;6.20;;
10811;SDS011;5458;51.496;7.334;2023-02-07T09:41:16;8.52;;;6.30;;
10811;SDS011;5458;51.496;7.334;2023-02-07T09:43:54;6.60;;;5.70;;
10811;SDS011;5458;51.496;7.334;2023-02-07T09:46:51;7.03;;;5.30;;
10811;SDS011;5458;51.496;7.334;2023-02-07T09:49:28;7.32;;;5.82;;
10811;SDS011;5458;51.496;7.334;2023-02-07T09:52:09;8.32;;;5.93;;
10811;SDS011;5458;51.496;7.334;2023-02-07T09:54:42;6.15;;;5.50;;
10811;SDS011;5458;51.496;7.334;2023-02-07T09:57:15;6.30;;;5.35;;
10811;SDS011;5458;51.496;7.334;2023-02-07T10:02:15;7.60;;;5.93;;
10811;SDS011;5458;51.496;7.334;2023-02-07T10:04:45;6.13;;;5.50;;
10811;SDS011;5458;51.496;7.334;2023-02-07T10:07:14;6.10;;;5.38;;
10811;SDS011;5458;51.496;7.334;2023-02-07T10:09:40;5.65;;;5.20;;
10811;SDS011;5458;51.496;7.334;2023-02-07T10:12:24;5.70;;;5.10;;
10811;SDS011;5458;51.496;7.334;2023-02-07T10:15:31;5.97;;;5.38;;
10811;SDS011;5458;51.496;7.334;2023-02-07T10:29:21;6.72;;;6.03;;
10811;SDS011;5458;51.496;7.334;2023-02-07T10:32:10;6.15;;;5.40;;
10811;SDS011;5458;51.496;7.334;2023-02-07T10:34:40;7.22;;;5.90;;
10811;SDS011;5458;51.496;7.334;2023-02-07T10:37:14;9.45;;;6.70;;
10811;SDS011;5458;51.496;7.334;2023-02-07T10:39:50;7.50;;;6.78;;
10811;SDS011;5458;51.496;7.334;2023-02-07T10:42:24;8.55;;;7.65;;
10811;SDS011;5458;51.496;7.334;2023-02-07T10:44:51;9.30;;;7.35;;
10811;SDS011;5458;51.496;7.334;2023-02-07T10:47:17;9.20;;;6.93;;
10811;SDS011;5458;51.496;7.334;2023-02-07T10:49:45;8.45;;;6.90;;
10811;SDS011;5458;51.496;7.334;2023-02-07T10:52:20;6.90;;;5.53;;
10811;SDS011;5458;51.496;7.334;2023-02-07T10:55:10;6.57;;;4.85;;
10811;SDS011;5458;51.496;7.334;2023-02-07T10:57:37;7.07;;;5.20;;
10811;SDS011;5458;51.496;7.334;2023-02-07T11:02:45;7.43;;;6.03;;
10811;SDS011;5458;51.496;7.334;2023-02-07T11:08:42;5.13;;;4.63;;
10811;SDS011;5458;51.496;7.334;2023-02-07T11:10:40;5.15;;;4.65;;
10811;SDS011;5458;51.496;7.334;2023-02-07T11:13:12;8.38;;;5.28;;
10811;SDS011;5458;51.496;7.334;2023-02-07T11:15:47;5.55;;;4.25;;
10811;SDS011;5458;51.496;7.334;2023-02-07T11:21:25;4.95;;;4.47;;
10811;SDS011;5458;51.496;7.334;2023-02-07T11:23:52;5.22;;;4.72;;
10811;SDS011;5458;51.496;7.334;2023-02-07T11:26:21;6.93;;;5.20;;
10811;SDS011;5458;51.496;7.334;2023-02-07T11:28:52;6.13;;;5.28;;
10811;SDS011;5458;51.496;7.334;2023-02-07T11:31:27;7.45;;;5.22;;
10811;SDS011;5458;51.496;7.334;2023-02-07T11:34:06;7.28;;;5.95;;
10811;SDS011;5458;51.496;7.334;2023-02-07T11:36:50;6.32;;;5.72;;
10811;SDS011;5458;51.496;7.334;2023-02-07T11:39:17;6.43;;;5.82;;
10811;SDS011;5458;51.496;7.334;2023-02-07T11:41:58;7.07;;;5.57;;
10811;SDS011;5458;51.496;7.334;2023-02-07T11:44:26;6.85;;;5.85;;
10811;SDS011;5458;51.496;7.334;2023-02-07T11:46:55;6.68;;;5.68;;
10811;SDS011;5458;51.496;7.334;2023-02-07T11:49:27;5.63;;;5.18;;
10811;SDS011;5458;51.496;7.334;2023-02-07T11:52:02;7.20;;;5.72;;
10811;SDS011;5458;51.496;7.334;2023-02-07T11:54:29;6.80;;;5.82;;
10811;SDS011;5458;51.496;7.334;2023-02-07T11:57:00;5.78;;;5.28;;
10811;SDS011;5458;51.496;7.334;2023-02-07T11:59:31;6.07;;;5.47;;
10811;SDS011;5458;51.496;7.334;2023-02-07T12:01:59;5.82;;;5.32;;
10811;SDS011;5458;51.496;7.334;2023-02-07T12:04:37;5.70;;;5.20;;
10811;SDS011;5458;51.496;7.334;2023-02-07T12:07:04;9.27;;;6.35;;
10811;SDS011;5458;51.496;7.334;2023-02-07T12:09:41;5.93;;;5.40;;
10811;SDS011;5458;51.496;7.334;2023-02-07T12:12:33;6.20;;;5.13;;
10811;SDS011;5458;51.496;7.334;2023-02-07T12:18:25;5.88;;;5.43;;
10811;SDS011;5458;51.496;7.334;2023-02-07T12:20:52;6.13;;;5.53;;
10811;SDS011;5458;51.496;7.334;2023-02-07T12:24:08;5.65;;;5.15;;
10811;SDS011;5458;51.496;7.334;2023-02-07T12:29:20;6.60;;;5.00;;
10811;SDS011;5458;51.496;7.334;2023-02-07T12:34:37;5.55;;;5.05;;
10811;SDS011;5458;51.496;7.334;2023-02-07T12:37:20;6.03;;;5.38;;
10811;SDS011;5458;51.496;7.334;2023-02-07T12:40:03;6.38;;;5.32;;
10811;SDS011;5458;51.496;7.334;2023-02-07T12:42:50;7.38;;;5.32;;
10811;SDS011;5458;51.496;7.334;2023-02-07T12:45:46;6.10;;;5.50;;
10811;SDS011;5458;51.496;7.334;2023-02-07T12:56:53;7.20;;;5.40;;
10811;SDS011;5458;51.496;7.334;2023-02-07T13:13:46;7.70;;;5.93;;
10811;SDS011;5458;51.496;7.334;2023-02-07T13:19:45;9.43;;;6.60;;
10811;SDS011;5458;51.496;7.334;2023-02-07T13:25:04;6.47;;;5.65;;
10811;SDS011;5458;51.496;7.334;2023-02-07T13:27:36;6.93;;;6.00;;
10811;SDS011;5458;51.496;7.334;2023-02-07T13:30:04;9.48;;;6.75;;
10811;SDS011;5458;51.496;7.334;2023-02-07T13:32:30;7.35;;;5.85;;
10811;SDS011;5458;51.496;7.334;2023-02-07T13:34:57;6.82;;;6.13;;
10811;SDS011;5458;51.496;7.334;2023-02-07T13:37:33;11.02;;;7.18;;
10811;SDS011;5458;51.496;7.334;2023-02-07T13:43:16;7.95;;;5.57;;
10811;SDS011;5458;51.496;7.334;2023-02-07T13:45:56;7.40;;;5.72;;
10811;SDS011;5458;51.496;7.334;2023-02-07T13:48:56;6.72;;;6.13;;
10811;SDS011;5458;51.496;7.334;2023-02-07T13:51:42;8.80;;;6.55;;
10811;SDS011;5458;51.496;7.334;2023-02-07T13:56:59;6.75;;;5.90;;
10811;SDS011;5458;51.496;7.334;2023-02-07T14:00:03;9.20;;;6.32;;
10811;SDS011;5458;51.496;7.334;2023-02-07T14:02:39;7.60;;;6.05;;
10811;SDS011;5458;51.496;7.334;2023-02-07T14:05:09;9.48;;;5.57;;
10811;SDS011;5458;51.496;7.334;2023-02-07T14:07:47;6.25;;;5.65;;
10811;SDS011;5458;51.496;7.334;2023-02-07T14:13:34;6.60;;;6.07;;
10811;SDS011;5458;51.496;7.334;2023-02-07T14:18:38;6.88;;;6.20;;
10811;SDS011;5458;51.496;7.334;2023-02-07T14:23:58;8.27;;;5.75;;
10811;SDS011;5458;51.496;7.334;2023-02-07T14:32:00;6.68;;;6.07;;
10811;SDS011;5458;51.496;7.334;2023-02-07T14:40:33;7.60;;;5.47;;
10811;SDS011;5458;51.496;7.334;2023-02-07T14:43:18;6.63;;;6.00;;
10811;SDS011;5458;51.496;7.334;2023-02-07T14:48:32;7.53;;;6.82;;
10811;SDS011;5458;51.496;7.334;2023-02-07T14:51:01;8.38;;;6.05;;
10811;SDS011;5458;51.496;7.334;2023-02-07T14:53:29;9.52;;;6.03;;
10811;SDS011;5458;51.496;7.334;2023-02-07T14:55:57;6.70;;;6.10;;
10811;SDS011;5458;51.496;7.334;2023-02-07T14:58:32;7.40;;;6.65;;
10811;SDS011;5458;51.496;7.334;2023-02-07T15:01:03;6.75;;;6.03;;
10811;SDS011;5458;51.496;7.334;2023-02-07T15:03:35;6.78;;;6.13;;
10811;SDS011;5458;51.496;7.334;2023-02-07T15:06:02;8.23;;;6.40;;
10811;SDS011;5458;51.496;7.334;2023-02-07T15:08:29;8.40;;;6.22;;
10811;SDS011;5458;51.496;7.334;2023-02-07T15:11:06;7.95;;;7.20;;
10811;SDS011;5458;51.496;7.334;2023-02-07T15:13:40;7.28;;;6.22;;
10811;SDS011;5458;51.496;7.334;2023-02-07T15:18:43;6.70;;;6.10;;
10811;SDS011;5458;51.496;7.334;2023-02-07T15:21:20;8.52;;;6.15;;
10811;SDS011;5458;51.496;7.334;2023-02-07T15:23:56;9.13;;;6.07;;
10811;SDS011;5458;51.496;7.334;2023-02-07T15:26:26;7.85;;;6.18;;
10811;SDS011;5458;51.496;7.334;2023-02-07T15:28:57;10.18;;;6.10;;
10811;SDS011;5458;51.496;7.334;2023-02-07T15:31:24;6.93;;;6.32;;
10811;SDS011;5458;51.496;7.334;2023-02-07T15:33:54;7.93;;;6.30;;
10811;SDS011;5458;51.496;7.334;2023-02-07T15:36:36;7.97;;;6.13;;
10811;SDS011;5458;51.496;7.334;2023-02-07T15:39:04;9.23;;;6.22;;
10811;SDS011;5458;51.496;7.334;2023-02-07T15:41:32;7.65;;;6.60;;
10811;SDS011;5458;51.496;7.334;2023-02-07T15:43:59;9.43;;;5.90;;
10811;SDS011;5458;51.496;7.334;2023-02-07T15:46:41;7.15;;;6.47;;
10811;SDS011;5458;51.496;7.334;2023-02-07T15:51:50;9.80;;;6.43;;
10811;SDS011;5458;51.496;7.334;2023-02-07T15:54:18;7.38;;;5.80;;
10811;SDS011;5458;51.496;7.334;2023-02-07T15:56:47;8.82;;;5.80;;
10811;SDS011;5458;51.496;7.334;2023-02-07T15:59:17;10.15;;;7.35;;
10811;SDS011;5458;51.496;7.334;2023-02-07T16:01:52;7.30;;;6.53;;
10811;SDS011;5458;51.496;7.334;2023-02-07T16:04:23;7.07;;;5.85;;
10811;SDS011;5458;51.496;7.334;2023-02-07T16:06:57;7.80;;;5.60;;
10811;SDS011;5458;51.496;7.334;2023-02-07T16:09:32;7.30;;;6.50;;
10811;SDS011;5458;51.496;7.334;2023-02-07T16:12:00;11.50;;;6.70;;
10811;SDS011;5458;51.496;7.334;2023-02-07T16:14:25;8.52;;;5.85;;
10811;SDS011;5458;51.496;7.334;2023-02-07T16:16:56;7.13;;;6.43;;
10811;SDS011;5458;51.496;7.334;2023-02-07T16:19:26;8.20;;;6.13;;
10811;SDS011;5458;51.496;7.334;2023-02-07T16:22:05;7.43;;;6.43;;
10811;SDS011;5458;51.496;7.334;2023-02-07T16:24:35;6.38;;;5.55;;
10811;SDS011;5458;51.496;7.334;2023-02-07T16:27:02;7.80;;;6.50;;
10811;SDS011;5458;51.496;7.334;2023-02-07T16:29:29;7.40;;;6.70;;
10811;SDS011;5458;51.496;7.334;2023-02-07T16:31:55;7.43;;;6.43;;
10811;SDS011;5458;51.496;7.334;2023-02-07T16:34:21;7.80;;;6.50;;
10811;SDS011;5458;51.496;7.334;2023-02-07T16:36:51;7.43;;;6.60;;
10811;SDS011;5458;51.496;7.334;2023-02-07T16:39:18;9.90;;;7.22;;
10811;SDS011;5458;51.496;7.334;2023-02-07T16:41:47;9.52;;;6.45;;
10811;SDS011;5458;51.496;7.334;2023-02-07T16:44:19;7.03;;;6.35;;
10811;SDS011;5458;51.496;7.334;2023-02-07T16:46:48;8.20;;;7.40;;
10811;SDS011;5458;51.496;7.334;2023-02-07T16:49:14;8.07;;;7.38;;
10811;SDS011;5458;51.496;7.334;2023-02-07T16:51:41;8.48;;;7.32;;
10811;SDS011;5458;51.496;7.334;2023-02-07T16:54:07;8.38;;;7.10;;
10811;SDS011;5458;51.496;7.334;2023-02-07T16:56:32;7.72;;;6.63;;
10811;SDS011;5458;51.496;7.334;2023-02-07T16:58:58;9.88;;;7.47;;